sensor_id;sensor_type;location;lat;lon;timestamp;temperature;humidity
34061;DHT22;20336;-33.424;-70.638;2023-07-31T00:01:52;17.10;99.90
34061;DHT22;20336;-33.424;-70.638;2023-07-31T00:04:19;17.20;99.90
34061;DHT22;20336;-33.424;-70.638;2023-07-31T00:06:46;17.20;99.90
34061;DHT22;20336;-33.424;-70.638;2023-07-31T00:09:12;17.20;99.90
34061;DHT22;20336;-33.424;-70.638;2023-07-31T00:11:39;17.00;99.90
34061;DHT22;20336;-33.424;-70.638;2023-07-31T00:14:06;16.90;99.90
34061;DHT22;20336;-33.424;-70.638;2023-07-31T00:16:33;16.90;99.90
34061;DHT22;20336;-33.424;-70.638;2023-07-31T00:19:00;16.90;99.90
34061;DHT22;20336;-33.424;-70.638;2023-07-31T00:21:27;16.80;99.90
34061;DHT22;20336;-33.424;-70.638;2023-07-31T00:23:53;16.70;99.90
34061;DHT22;20336;-33.424;-70.638;2023-07-31T00:26:21;16.60;99.90
34061;DHT22;20336;-33.424;-70.638;2023-07-31T00:28:48;16.60;99.90
34061;DHT22;20336;-33.424;-70.638;2023-07-31T00:31:15;16.60;99.90
34061;DHT22;20336;-33.424;-70.638;2023-07-31T00:33:42;16.50;99.90
34061;DHT22;20336;-33.424;-70.638;2023-07-31T00:36:09;16.50;99.90
34061;DHT22;20336;-33.424;-70.638;2023-07-31T00:38:35;16.50;99.90
34061;DHT22;20336;-33.424;-70.638;2023-07-31T00:41:02;16.50;99.90
34061;DHT22;20336;-33.424;-70.638;2023-07-31T00:43:29;16.40;99.90
34061;DHT22;20336;-33.424;-70.638;2023-07-31T00:45:56;16.40;99.90
34061;DHT22;20336;-33.424;-70.638;2023-07-31T00:48:23;16.30;99.90
34061;DHT22;20336;-33.424;-70.638;2023-07-31T00:50:50;16.30;99.90
34061;DHT22;20336;-33.424;-70.638;2023-07-31T00:53:17;16.30;99.90
34061;DHT22;20336;-33.424;-70.638;2023-07-31T00:55:45;16.40;99.90
34061;DHT22;20336;-33.424;-70.638;2023-07-31T00:58:11;16.30;99.90
34061;DHT22;20336;-33.424;-70.638;2023-07-31T01:00:38;16.10;99.90
34061;DHT22;20336;-33.424;-70.638;2023-07-31T01:03:05;16.00;99.90
34061;DHT22;20336;-33.424;-70.638;2023-07-31T01:06:14;16.00;99.90
34061;DHT22;20336;-33.424;-70.638;2023-07-31T01:08:54;16.00;99.90
34061;DHT22;20336;-33.424;-70.638;2023-07-31T01:11:33;16.10;99.90
34061;DHT22;20336;-33.424;-70.638;2023-07-31T01:14:01;16.00;99.90
34061;DHT22;20336;-33.424;-70.638;2023-07-31T01:16:28;16.00;99.90
34061;DHT22;20336;-33.424;-70.638;2023-07-31T01:18:55;16.00;99.90
34061;DHT22;20336;-33.424;-70.638;2023-07-31T01:26:58;15.70;99.90
34061;DHT22;20336;-33.424;-70.638;2023-07-31T01:29:45;15.70;99.90
34061;DHT22;20336;-33.424;-70.638;2023-07-31T01:32:14;15.60;99.90
34061;DHT22;20336;-33.424;-70.638;2023-07-31T01:34:41;15.60;99.90
34061;DHT22;20336;-33.424;-70.638;2023-07-31T01:37:09;15.60;99.90
34061;DHT22;20336;-33.424;-70.638;2023-07-31T01:39:35;15.60;99.90
34061;DHT22;20336;-33.424;-70.638;2023-07-31T01:42:02;15.70;99.90
34061;DHT22;20336;-33.424;-70.638;2023-07-31T01:44:29;15.60;99.90
34061;DHT22;20336;-33.424;-70.638;2023-07-31T01:46:56;15.50;99.90
34061;DHT22;20336;-33.424;-70.638;2023-07-31T01:49:26;15.50;99.90
34061;DHT22;20336;-33.424;-70.638;2023-07-31T01:51:53;15.50;99.90
34061;DHT22;20336;-33.424;-70.638;2023-07-31T01:54:20;15.60;99.90
34061;DHT22;20336;-33.424;-70.638;2023-07-31T01:56:47;15.50;99.90
34061;DHT22;20336;-33.424;-70.638;2023-07-31T01:59:13;15.50;99.90
34061;DHT22;20336;-33.424;-70.638;2023-07-31T02:01:40;15.40;99.90
34061;DHT22;20336;-33.424;-70.638;2023-07-31T02:04:07;15.30;99.90
34061;DHT22;20336;-33.424;-70.638;2023-07-31T02:06:34;15.30;99.90
34061;DHT22;20336;-33.424;-70.638;2023-07-31T02:09:01;15.20;99.90
34061;DHT22;20336;-33.424;-70.638;2023-07-31T02:11:28;15.20;99.90
34061;DHT22;20336;-33.424;-70.638;2023-07-31T02:13:55;15.20;99.90
34061;DHT22;20336;-33.424;-70.638;2023-07-31T02:16:22;15.20;99.90
34061;DHT22;20336;-33.424;-70.638;2023-07-31T02:18:48;15.10;99.90
34061;DHT22;20336;-33.424;-70.638;2023-07-31T02:21:15;15.10;99.90
34061;DHT22;20336;-33.424;-70.638;2023-07-31T02:23:42;15.00;99.90
34061;DHT22;20336;-33.424;-70.638;2023-07-31T02:26:09;14.90;99.90
34061;DHT22;20336;-33.424;-70.638;2023-07-31T02:28:36;14.90;99.90
34061;DHT22;20336;-33.424;-70.638;2023-07-31T02:31:03;14.90;99.90
34061;DHT22;20336;-33.424;-70.638;2023-07-31T02:33:30;15.00;99.90
34061;DHT22;20336;-33.424;-70.638;2023-07-31T02:35:57;15.00;99.90
34061;DHT22;20336;-33.424;-70.638;2023-07-31T02:38:24;15.00;99.90
34061;DHT22;20336;-33.424;-70.638;2023-07-31T02:40:50;15.00;99.90
34061;DHT22;20336;-33.424;-70.638;2023-07-31T02:43:17;14.90;99.90
34061;DHT22;20336;-33.424;-70.638;2023-07-31T02:45:44;14.80;99.90
34061;DHT22;20336;-33.424;-70.638;2023-07-31T02:48:11;14.80;99.90
34061;DHT22;20336;-33.424;-70.638;2023-07-31T02:50:38;14.80;99.90
34061;DHT22;20336;-33.424;-70.638;2023-07-31T02:53:05;14.90;99.90
34061;DHT22;20336;-33.424;-70.638;2023-07-31T02:55:32;14.90;99.90
34061;DHT22;20336;-33.424;-70.638;2023-07-31T02:57:59;14.80;99.90
34061;DHT22;20336;-33.424;-70.638;2023-07-31T03:00:25;14.70;99.90
34061;DHT22;20336;-33.424;-70.638;2023-07-31T03:02:52;14.70;99.90
34061;DHT22;20336;-33.424;-70.638;2023-07-31T03:05:19;14.70;99.90
34061;DHT22;20336;-33.424;-70.638;2023-07-31T03:07:46;14.70;99.90
34061;DHT22;20336;-33.424;-70.638;2023-07-31T03:10:13;14.60;99.90
34061;DHT22;20336;-33.424;-70.638;2023-07-31T03:12:40;14.70;99.90
34061;DHT22;20336;-33.424;-70.638;2023-07-31T03:15:07;14.70;99.90
34061;DHT22;20336;-33.424;-70.638;2023-07-31T03:17:34;14.70;99.90
34061;DHT22;20336;-33.424;-70.638;2023-07-31T03:20:01;14.70;99.90
34061;DHT22;20336;-33.424;-70.638;2023-07-31T03:22:28;14.70;99.90
34061;DHT22;20336;-33.424;-70.638;2023-07-31T03:24:55;14.70;99.90
34061;DHT22;20336;-33.424;-70.638;2023-07-31T03:27:22;14.70;99.90
34061;DHT22;20336;-33.424;-70.638;2023-07-31T03:29:49;14.70;99.90
34061;DHT22;20336;-33.424;-70.638;2023-07-31T03:32:17;14.60;99.90
34061;DHT22;20336;-33.424;-70.638;2023-07-31T03:34:44;14.70;99.90
34061;DHT22;20336;-33.424;-70.638;2023-07-31T03:37:11;14.60;99.90
34061;DHT22;20336;-33.424;-70.638;2023-07-31T03:39:38;14.60;99.90
34061;DHT22;20336;-33.424;-70.638;2023-07-31T03:42:05;14.50;99.90
34061;DHT22;20336;-33.424;-70.638;2023-07-31T03:44:32;14.50;99.90
34061;DHT22;20336;-33.424;-70.638;2023-07-31T03:46:59;14.50;99.90
34061;DHT22;20336;-33.424;-70.638;2023-07-31T03:49:26;14.50;99.90
34061;DHT22;20336;-33.424;-70.638;2023-07-31T03:51:53;14.60;99.90
34061;DHT22;20336;-33.424;-70.638;2023-07-31T03:54:20;14.60;99.90
34061;DHT22;20336;-33.424;-70.638;2023-07-31T03:56:47;14.60;99.90
34061;DHT22;20336;-33.424;-70.638;2023-07-31T03:59:13;14.50;99.90
34061;DHT22;20336;-33.424;-70.638;2023-07-31T04:01:40;14.50;99.90
34061;DHT22;20336;-33.424;-70.638;2023-07-31T04:04:07;14.50;99.90
34061;DHT22;20336;-33.424;-70.638;2023-07-31T04:06:34;14.40;99.90
34061;DHT22;20336;-33.424;-70.638;2023-07-31T04:09:01;14.50;99.90
34061;DHT22;20336;-33.424;-70.638;2023-07-31T04:11:28;14.50;99.90
34061;DHT22;20336;-33.424;-70.638;2023-07-31T04:13:55;14.50;99.90
34061;DHT22;20336;-33.424;-70.638;2023-07-31T04:16:22;14.40;99.90
34061;DHT22;20336;-33.424;-70.638;2023-07-31T04:18:49;14.30;99.90
34061;DHT22;20336;-33.424;-70.638;2023-07-31T04:21:16;14.30;99.90
34061;DHT22;20336;-33.424;-70.638;2023-07-31T04:23:44;14.20;99.90
34061;DHT22;20336;-33.424;-70.638;2023-07-31T04:26:10;14.00;99.90
34061;DHT22;20336;-33.424;-70.638;2023-07-31T04:28:37;14.40;99.90
34061;DHT22;20336;-33.424;-70.638;2023-07-31T04:31:04;14.30;99.90
34061;DHT22;20336;-33.424;-70.638;2023-07-31T04:33:31;14.40;99.90
34061;DHT22;20336;-33.424;-70.638;2023-07-31T04:35:59;14.30;99.90
34061;DHT22;20336;-33.424;-70.638;2023-07-31T04:38:26;14.20;99.90
34061;DHT22;20336;-33.424;-70.638;2023-07-31T04:40:53;14.10;99.90
34061;DHT22;20336;-33.424;-70.638;2023-07-31T04:43:20;14.10;99.90
34061;DHT22;20336;-33.424;-70.638;2023-07-31T04:45:47;14.10;99.90
34061;DHT22;20336;-33.424;-70.638;2023-07-31T04:50:44;14.00;99.90
34061;DHT22;20336;-33.424;-70.638;2023-07-31T04:53:11;13.90;99.90
34061;DHT22;20336;-33.424;-70.638;2023-07-31T04:55:38;14.00;99.90
34061;DHT22;20336;-33.424;-70.638;2023-07-31T04:58:05;14.00;99.90
34061;DHT22;20336;-33.424;-70.638;2023-07-31T05:00:32;14.10;99.90
34061;DHT22;20336;-33.424;-70.638;2023-07-31T05:02:59;14.10;99.90
34061;DHT22;20336;-33.424;-70.638;2023-07-31T05:05:25;14.00;99.90
34061;DHT22;20336;-33.424;-70.638;2023-07-31T05:07:52;14.10;99.90
34061;DHT22;20336;-33.424;-70.638;2023-07-31T05:10:19;14.10;99.90
34061;DHT22;20336;-33.424;-70.638;2023-07-31T05:12:46;14.00;99.90
34061;DHT22;20336;-33.424;-70.638;2023-07-31T05:15:13;14.00;99.90
34061;DHT22;20336;-33.424;-70.638;2023-07-31T05:17:40;14.10;99.90
34061;DHT22;20336;-33.424;-70.638;2023-07-31T05:20:07;14.00;99.90
34061;DHT22;20336;-33.424;-70.638;2023-07-31T05:22:35;14.00;99.90
34061;DHT22;20336;-33.424;-70.638;2023-07-31T05:25:02;14.10;99.90
34061;DHT22;20336;-33.424;-70.638;2023-07-31T05:27:28;14.00;99.90
34061;DHT22;20336;-33.424;-70.638;2023-07-31T05:29:55;13.90;99.90
34061;DHT22;20336;-33.424;-70.638;2023-07-31T05:32:22;13.90;99.90
34061;DHT22;20336;-33.424;-70.638;2023-07-31T05:34:51;13.90;99.90
34061;DHT22;20336;-33.424;-70.638;2023-07-31T05:37:18;13.90;99.90
34061;DHT22;20336;-33.424;-70.638;2023-07-31T05:39:45;13.90;99.90
34061;DHT22;20336;-33.424;-70.638;2023-07-31T05:42:12;13.90;99.90
34061;DHT22;20336;-33.424;-70.638;2023-07-31T05:44:39;13.80;99.90
34061;DHT22;20336;-33.424;-70.638;2023-07-31T05:47:06;13.80;99.90
34061;DHT22;20336;-33.424;-70.638;2023-07-31T05:49:33;13.80;99.90
34061;DHT22;20336;-33.424;-70.638;2023-07-31T05:52:00;13.70;99.90
34061;DHT22;20336;-33.424;-70.638;2023-07-31T05:54:27;13.70;99.90
34061;DHT22;20336;-33.424;-70.638;2023-07-31T05:56:54;13.70;99.90
34061;DHT22;20336;-33.424;-70.638;2023-07-31T05:59:21;13.70;99.90
34061;DHT22;20336;-33.424;-70.638;2023-07-31T06:01:48;13.70;99.90
34061;DHT22;20336;-33.424;-70.638;2023-07-31T06:04:15;13.70;99.90
34061;DHT22;20336;-33.424;-70.638;2023-07-31T06:06:42;13.70;99.90
34061;DHT22;20336;-33.424;-70.638;2023-07-31T06:09:08;13.70;99.90
34061;DHT22;20336;-33.424;-70.638;2023-07-31T06:11:35;13.60;99.90
34061;DHT22;20336;-33.424;-70.638;2023-07-31T06:14:02;13.60;99.90
34061;DHT22;20336;-33.424;-70.638;2023-07-31T06:16:29;13.60;99.90
34061;DHT22;20336;-33.424;-70.638;2023-07-31T06:18:56;13.60;99.90
34061;DHT22;20336;-33.424;-70.638;2023-07-31T06:21:23;13.50;99.90
34061;DHT22;20336;-33.424;-70.638;2023-07-31T06:23:50;13.50;99.90
34061;DHT22;20336;-33.424;-70.638;2023-07-31T06:26:16;13.40;99.90
34061;DHT22;20336;-33.424;-70.638;2023-07-31T06:28:43;13.40;99.90
34061;DHT22;20336;-33.424;-70.638;2023-07-31T06:31:10;13.40;99.90
34061;DHT22;20336;-33.424;-70.638;2023-07-31T06:33:37;13.40;99.90
34061;DHT22;20336;-33.424;-70.638;2023-07-31T06:36:04;13.40;99.90
34061;DHT22;20336;-33.424;-70.638;2023-07-31T06:38:31;13.40;99.90
34061;DHT22;20336;-33.424;-70.638;2023-07-31T06:40:58;13.40;99.90
34061;DHT22;20336;-33.424;-70.638;2023-07-31T06:43:25;13.40;99.90
34061;DHT22;20336;-33.424;-70.638;2023-07-31T06:45:51;13.40;99.90
34061;DHT22;20336;-33.424;-70.638;2023-07-31T06:48:18;13.50;99.90
34061;DHT22;20336;-33.424;-70.638;2023-07-31T06:50:45;13.40;99.90
34061;DHT22;20336;-33.424;-70.638;2023-07-31T06:53:12;13.40;99.90
34061;DHT22;20336;-33.424;-70.638;2023-07-31T06:55:39;13.40;99.90
34061;DHT22;20336;-33.424;-70.638;2023-07-31T06:58:06;13.30;99.90
34061;DHT22;20336;-33.424;-70.638;2023-07-31T07:00:32;13.30;99.90
34061;DHT22;20336;-33.424;-70.638;2023-07-31T07:02:59;13.30;99.90
34061;DHT22;20336;-33.424;-70.638;2023-07-31T07:05:26;13.20;99.90
34061;DHT22;20336;-33.424;-70.638;2023-07-31T07:07:53;13.20;99.90
34061;DHT22;20336;-33.424;-70.638;2023-07-31T07:10:20;13.20;99.90
34061;DHT22;20336;-33.424;-70.638;2023-07-31T07:12:48;13.20;99.90
34061;DHT22;20336;-33.424;-70.638;2023-07-31T07:15:15;13.30;99.90
34061;DHT22;20336;-33.424;-70.638;2023-07-31T07:17:42;13.30;99.90
34061;DHT22;20336;-33.424;-70.638;2023-07-31T07:20:09;13.20;99.90
34061;DHT22;20336;-33.424;-70.638;2023-07-31T07:22:36;13.20;99.90
34061;DHT22;20336;-33.424;-70.638;2023-07-31T07:25:04;13.20;99.90
34061;DHT22;20336;-33.424;-70.638;2023-07-31T07:27:33;13.20;99.90
34061;DHT22;20336;-33.424;-70.638;2023-07-31T07:30:00;13.10;99.90
34061;DHT22;20336;-33.424;-70.638;2023-07-31T07:32:27;13.10;99.90
34061;DHT22;20336;-33.424;-70.638;2023-07-31T07:34:55;13.10;99.90
34061;DHT22;20336;-33.424;-70.638;2023-07-31T07:37:22;13.10;99.90
34061;DHT22;20336;-33.424;-70.638;2023-07-31T07:39:49;13.00;99.90
34061;DHT22;20336;-33.424;-70.638;2023-07-31T07:42:16;13.10;99.90
34061;DHT22;20336;-33.424;-70.638;2023-07-31T07:44:43;13.10;99.90
34061;DHT22;20336;-33.424;-70.638;2023-07-31T07:47:10;13.10;99.90
34061;DHT22;20336;-33.424;-70.638;2023-07-31T07:49:36;13.10;99.90
34061;DHT22;20336;-33.424;-70.638;2023-07-31T07:52:04;13.00;99.90
34061;DHT22;20336;-33.424;-70.638;2023-07-31T07:54:31;13.00;99.90
34061;DHT22;20336;-33.424;-70.638;2023-07-31T07:56:58;13.00;99.90
34061;DHT22;20336;-33.424;-70.638;2023-07-31T07:59:25;13.00;99.90
34061;DHT22;20336;-33.424;-70.638;2023-07-31T08:01:52;13.00;99.90
34061;DHT22;20336;-33.424;-70.638;2023-07-31T08:04:19;13.00;99.90
34061;DHT22;20336;-33.424;-70.638;2023-07-31T08:06:46;13.00;99.90
34061;DHT22;20336;-33.424;-70.638;2023-07-31T08:09:13;13.00;99.90
34061;DHT22;20336;-33.424;-70.638;2023-07-31T08:11:40;13.00;99.90
34061;DHT22;20336;-33.424;-70.638;2023-07-31T08:14:06;13.00;99.90
34061;DHT22;20336;-33.424;-70.638;2023-07-31T08:16:33;13.00;99.90
34061;DHT22;20336;-33.424;-70.638;2023-07-31T08:19:00;12.90;99.90
34061;DHT22;20336;-33.424;-70.638;2023-07-31T08:21:27;12.90;99.90
34061;DHT22;20336;-33.424;-70.638;2023-07-31T08:23:54;12.90;99.90
34061;DHT22;20336;-33.424;-70.638;2023-07-31T08:26:21;12.90;99.90
34061;DHT22;20336;-33.424;-70.638;2023-07-31T08:28:47;12.90;99.90
34061;DHT22;20336;-33.424;-70.638;2023-07-31T08:31:14;12.90;99.90
34061;DHT22;20336;-33.424;-70.638;2023-07-31T08:33:41;12.80;99.90
34061;DHT22;20336;-33.424;-70.638;2023-07-31T08:36:08;12.80;99.90
34061;DHT22;20336;-33.424;-70.638;2023-07-31T08:38:35;12.80;99.90
34061;DHT22;20336;-33.424;-70.638;2023-07-31T08:41:03;12.80;99.90
34061;DHT22;20336;-33.424;-70.638;2023-07-31T08:43:31;12.80;99.90
34061;DHT22;20336;-33.424;-70.638;2023-07-31T08:45:59;12.70;99.90
34061;DHT22;20336;-33.424;-70.638;2023-07-31T08:48:28;12.80;99.90
34061;DHT22;20336;-33.424;-70.638;2023-07-31T08:50:55;12.70;99.90
34061;DHT22;20336;-33.424;-70.638;2023-07-31T08:53:22;12.70;99.90
34061;DHT22;20336;-33.424;-70.638;2023-07-31T08:55:50;12.70;99.90
34061;DHT22;20336;-33.424;-70.638;2023-07-31T08:58:19;12.70;99.90
34061;DHT22;20336;-33.424;-70.638;2023-07-31T09:00:46;12.60;99.90
34061;DHT22;20336;-33.424;-70.638;2023-07-31T09:03:18;12.70;99.90
34061;DHT22;20336;-33.424;-70.638;2023-07-31T09:05:47;12.60;99.90
34061;DHT22;20336;-33.424;-70.638;2023-07-31T09:08:15;12.60;99.90
34061;DHT22;20336;-33.424;-70.638;2023-07-31T09:10:45;12.50;99.90
34061;DHT22;20336;-33.424;-70.638;2023-07-31T09:13:18;12.50;99.90
34061;DHT22;20336;-33.424;-70.638;2023-07-31T09:15:45;12.40;99.90
34061;DHT22;20336;-33.424;-70.638;2023-07-31T09:18:13;12.50;99.90
34061;DHT22;20336;-33.424;-70.638;2023-07-31T09:21:06;12.50;99.90
34061;DHT22;20336;-33.424;-70.638;2023-07-31T09:23:44;12.40;99.90
34061;DHT22;20336;-33.424;-70.638;2023-07-31T09:26:11;12.50;99.90
34061;DHT22;20336;-33.424;-70.638;2023-07-31T09:28:54;12.40;99.90
34061;DHT22;20336;-33.424;-70.638;2023-07-31T09:31:42;12.50;99.90
34061;DHT22;20336;-33.424;-70.638;2023-07-31T09:34:10;12.40;99.90
34061;DHT22;20336;-33.424;-70.638;2023-07-31T09:36:41;12.40;99.90
34061;DHT22;20336;-33.424;-70.638;2023-07-31T09:39:10;12.40;99.90
34061;DHT22;20336;-33.424;-70.638;2023-07-31T09:41:44;12.40;99.90
34061;DHT22;20336;-33.424;-70.638;2023-07-31T09:44:12;12.40;99.90
34061;DHT22;20336;-33.424;-70.638;2023-07-31T09:46:39;12.40;99.90
34061;DHT22;20336;-33.424;-70.638;2023-07-31T09:49:10;12.40;99.90
34061;DHT22;20336;-33.424;-70.638;2023-07-31T09:51:41;12.50;99.90
34061;DHT22;20336;-33.424;-70.638;2023-07-31T09:54:12;12.40;99.90
34061;DHT22;20336;-33.424;-70.638;2023-07-31T09:56:48;12.40;99.90
34061;DHT22;20336;-33.424;-70.638;2023-07-31T09:59:17;12.40;99.90
34061;DHT22;20336;-33.424;-70.638;2023-07-31T10:01:45;12.40;99.90
34061;DHT22;20336;-33.424;-70.638;2023-07-31T10:04:13;12.40;99.90
34061;DHT22;20336;-33.424;-70.638;2023-07-31T10:06:42;12.40;99.90
34061;DHT22;20336;-33.424;-70.638;2023-07-31T10:09:12;12.40;99.90
34061;DHT22;20336;-33.424;-70.638;2023-07-31T10:12:07;12.50;99.90
34061;DHT22;20336;-33.424;-70.638;2023-07-31T10:14:36;12.50;99.90
34061;DHT22;20336;-33.424;-70.638;2023-07-31T10:17:03;12.50;99.90
34061;DHT22;20336;-33.424;-70.638;2023-07-31T10:19:32;12.40;99.90
34061;DHT22;20336;-33.424;-70.638;2023-07-31T10:22:00;12.40;99.90
34061;DHT22;20336;-33.424;-70.638;2023-07-31T10:24:27;12.30;99.90
34061;DHT22;20336;-33.424;-70.638;2023-07-31T10:26:58;12.30;99.90
34061;DHT22;20336;-33.424;-70.638;2023-07-31T10:29:26;12.40;99.90
34061;DHT22;20336;-33.424;-70.638;2023-07-31T10:31:57;12.30;99.90
34061;DHT22;20336;-33.424;-70.638;2023-07-31T10:34:25;12.30;99.90
34061;DHT22;20336;-33.424;-70.638;2023-07-31T10:37:25;12.30;99.90
34061;DHT22;20336;-33.424;-70.638;2023-07-31T10:40:24;12.30;99.90
34061;DHT22;20336;-33.424;-70.638;2023-07-31T10:42:53;12.30;99.90
34061;DHT22;20336;-33.424;-70.638;2023-07-31T10:45:42;12.30;99.90
34061;DHT22;20336;-33.424;-70.638;2023-07-31T10:48:16;12.20;99.90
34061;DHT22;20336;-33.424;-70.638;2023-07-31T10:50:55;12.20;99.90
34061;DHT22;20336;-33.424;-70.638;2023-07-31T10:53:28;12.10;99.90
34061;DHT22;20336;-33.424;-70.638;2023-07-31T10:56:02;12.10;99.90
34061;DHT22;20336;-33.424;-70.638;2023-07-31T10:58:31;12.10;99.90
34061;DHT22;20336;-33.424;-70.638;2023-07-31T11:01:00;12.10;99.90
34061;DHT22;20336;-33.424;-70.638;2023-07-31T11:06:08;12.10;99.90
34061;DHT22;20336;-33.424;-70.638;2023-07-31T11:08:41;12.00;99.90
34061;DHT22;20336;-33.424;-70.638;2023-07-31T11:11:10;12.00;99.90
34061;DHT22;20336;-33.424;-70.638;2023-07-31T11:13:45;12.00;99.90
34061;DHT22;20336;-33.424;-70.638;2023-07-31T11:16:13;12.00;99.90
34061;DHT22;20336;-33.424;-70.638;2023-07-31T11:18:41;11.90;99.90
34061;DHT22;20336;-33.424;-70.638;2023-07-31T11:21:16;11.90;99.90
34061;DHT22;20336;-33.424;-70.638;2023-07-31T11:23:48;11.80;99.90
34061;DHT22;20336;-33.424;-70.638;2023-07-31T11:26:16;11.80;99.90
34061;DHT22;20336;-33.424;-70.638;2023-07-31T11:28:45;11.80;99.90
34061;DHT22;20336;-33.424;-70.638;2023-07-31T11:31:12;11.80;99.90
34061;DHT22;20336;-33.424;-70.638;2023-07-31T11:33:39;11.70;99.90
34061;DHT22;20336;-33.424;-70.638;2023-07-31T11:36:06;11.70;99.90
34061;DHT22;20336;-33.424;-70.638;2023-07-31T11:38:34;11.70;99.90
34061;DHT22;20336;-33.424;-70.638;2023-07-31T11:41:03;11.50;99.90
34061;DHT22;20336;-33.424;-70.638;2023-07-31T11:43:31;11.50;99.90
34061;DHT22;20336;-33.424;-70.638;2023-07-31T11:45:59;11.50;99.90
34061;DHT22;20336;-33.424;-70.638;2023-07-31T11:48:30;11.50;99.90
34061;DHT22;20336;-33.424;-70.638;2023-07-31T11:51:02;11.50;99.90
34061;DHT22;20336;-33.424;-70.638;2023-07-31T11:56:03;11.60;99.90
34061;DHT22;20336;-33.424;-70.638;2023-07-31T11:58:34;11.50;99.90
34061;DHT22;20336;-33.424;-70.638;2023-07-31T12:01:02;11.50;99.90
34061;DHT22;20336;-33.424;-70.638;2023-07-31T12:03:29;11.50;99.90
34061;DHT22;20336;-33.424;-70.638;2023-07-31T12:05:56;11.70;99.90
34061;DHT22;20336;-33.424;-70.638;2023-07-31T12:08:25;11.60;99.90
34061;DHT22;20336;-33.424;-70.638;2023-07-31T12:10:53;11.70;99.90
34061;DHT22;20336;-33.424;-70.638;2023-07-31T12:13:24;11.80;99.90
34061;DHT22;20336;-33.424;-70.638;2023-07-31T12:16:00;11.80;99.90
34061;DHT22;20336;-33.424;-70.638;2023-07-31T12:18:34;11.90;99.90
34061;DHT22;20336;-33.424;-70.638;2023-07-31T12:21:04;12.00;99.90
34061;DHT22;20336;-33.424;-70.638;2023-07-31T12:23:32;12.10;99.90
34061;DHT22;20336;-33.424;-70.638;2023-07-31T12:26:09;12.30;99.90
34061;DHT22;20336;-33.424;-70.638;2023-07-31T12:28:38;12.40;99.90
34061;DHT22;20336;-33.424;-70.638;2023-07-31T12:31:05;12.60;99.90
34061;DHT22;20336;-33.424;-70.638;2023-07-31T12:33:34;12.70;99.90
34061;DHT22;20336;-33.424;-70.638;2023-07-31T12:36:02;12.80;99.90
34061;DHT22;20336;-33.424;-70.638;2023-07-31T12:38:30;13.00;99.90
34061;DHT22;20336;-33.424;-70.638;2023-07-31T12:40:57;13.10;99.90
34061;DHT22;20336;-33.424;-70.638;2023-07-31T12:43:24;13.20;99.90
34061;DHT22;20336;-33.424;-70.638;2023-07-31T12:45:51;13.20;99.90
34061;DHT22;20336;-33.424;-70.638;2023-07-31T12:48:18;13.30;99.90
34061;DHT22;20336;-33.424;-70.638;2023-07-31T12:50:45;13.40;99.90
34061;DHT22;20336;-33.424;-70.638;2023-07-31T12:53:11;13.50;99.90
34061;DHT22;20336;-33.424;-70.638;2023-07-31T12:55:38;13.60;99.90
34061;DHT22;20336;-33.424;-70.638;2023-07-31T12:58:05;13.60;99.90
34061;DHT22;20336;-33.424;-70.638;2023-07-31T13:00:32;13.70;99.90
34061;DHT22;20336;-33.424;-70.638;2023-07-31T13:02:59;13.70;99.90
34061;DHT22;20336;-33.424;-70.638;2023-07-31T13:05:30;13.70;99.90
34061;DHT22;20336;-33.424;-70.638;2023-07-31T13:07:57;13.80;99.90
34061;DHT22;20336;-33.424;-70.638;2023-07-31T13:10:24;13.80;99.90
34061;DHT22;20336;-33.424;-70.638;2023-07-31T13:12:53;13.80;99.90
34061;DHT22;20336;-33.424;-70.638;2023-07-31T13:15:19;13.80;99.90
34061;DHT22;20336;-33.424;-70.638;2023-07-31T13:17:46;13.70;99.90
34061;DHT22;20336;-33.424;-70.638;2023-07-31T13:20:13;13.80;99.90
34061;DHT22;20336;-33.424;-70.638;2023-07-31T13:22:40;13.90;99.90
34061;DHT22;20336;-33.424;-70.638;2023-07-31T13:25:08;13.90;99.90
34061;DHT22;20336;-33.424;-70.638;2023-07-31T13:27:35;13.90;99.90
34061;DHT22;20336;-33.424;-70.638;2023-07-31T13:30:02;14.00;99.90
34061;DHT22;20336;-33.424;-70.638;2023-07-31T13:32:29;14.10;99.90
34061;DHT22;20336;-33.424;-70.638;2023-07-31T13:34:56;14.00;99.90
34061;DHT22;20336;-33.424;-70.638;2023-07-31T13:37:24;14.00;99.90
34061;DHT22;20336;-33.424;-70.638;2023-07-31T13:39:51;14.10;99.90
34061;DHT22;20336;-33.424;-70.638;2023-07-31T13:42:17;14.20;99.90
34061;DHT22;20336;-33.424;-70.638;2023-07-31T13:44:44;14.30;99.90
34061;DHT22;20336;-33.424;-70.638;2023-07-31T13:47:11;14.30;99.90
34061;DHT22;20336;-33.424;-70.638;2023-07-31T13:49:38;14.40;99.90
34061;DHT22;20336;-33.424;-70.638;2023-07-31T13:52:05;14.50;99.90
34061;DHT22;20336;-33.424;-70.638;2023-07-31T13:54:32;14.40;99.90
34061;DHT22;20336;-33.424;-70.638;2023-07-31T13:56:59;14.30;99.90
34061;DHT22;20336;-33.424;-70.638;2023-07-31T13:59:26;14.30;99.90
34061;DHT22;20336;-33.424;-70.638;2023-07-31T14:01:53;14.20;99.90
34061;DHT22;20336;-33.424;-70.638;2023-07-31T14:04:19;14.20;99.90
34061;DHT22;20336;-33.424;-70.638;2023-07-31T14:06:46;14.30;99.90
34061;DHT22;20336;-33.424;-70.638;2023-07-31T14:09:14;14.60;99.90
34061;DHT22;20336;-33.424;-70.638;2023-07-31T14:11:41;14.70;99.90
34061;DHT22;20336;-33.424;-70.638;2023-07-31T14:14:09;14.70;99.90
34061;DHT22;20336;-33.424;-70.638;2023-07-31T14:16:36;14.90;99.90
34061;DHT22;20336;-33.424;-70.638;2023-07-31T14:19:03;15.00;99.90
34061;DHT22;20336;-33.424;-70.638;2023-07-31T14:21:30;15.00;99.90
34061;DHT22;20336;-33.424;-70.638;2023-07-31T14:23:56;15.20;99.90
34061;DHT22;20336;-33.424;-70.638;2023-07-31T14:26:23;15.40;99.90
34061;DHT22;20336;-33.424;-70.638;2023-07-31T14:28:50;15.60;99.90
34061;DHT22;20336;-33.424;-70.638;2023-07-31T14:31:17;16.00;99.90
34061;DHT22;20336;-33.424;-70.638;2023-07-31T14:33:44;16.40;99.90
34061;DHT22;20336;-33.424;-70.638;2023-07-31T14:36:11;16.70;99.90
34061;DHT22;20336;-33.424;-70.638;2023-07-31T14:38:37;16.90;99.90
34061;DHT22;20336;-33.424;-70.638;2023-07-31T14:41:04;17.20;99.90
34061;DHT22;20336;-33.424;-70.638;2023-07-31T14:43:31;17.50;99.90
34061;DHT22;20336;-33.424;-70.638;2023-07-31T14:45:58;17.80;99.90
34061;DHT22;20336;-33.424;-70.638;2023-07-31T14:48:26;17.90;99.90
34061;DHT22;20336;-33.424;-70.638;2023-07-31T14:50:53;18.00;99.90
34061;DHT22;20336;-33.424;-70.638;2023-07-31T14:53:21;18.10;99.90
34061;DHT22;20336;-33.424;-70.638;2023-07-31T14:55:48;18.30;99.90
34061;DHT22;20336;-33.424;-70.638;2023-07-31T14:58:15;18.40;99.90
34061;DHT22;20336;-33.424;-70.638;2023-07-31T15:00:43;18.60;99.90
34061;DHT22;20336;-33.424;-70.638;2023-07-31T15:03:10;18.70;99.90
34061;DHT22;20336;-33.424;-70.638;2023-07-31T15:05:37;18.90;99.90
34061;DHT22;20336;-33.424;-70.638;2023-07-31T15:08:04;18.90;99.90